Time;durP1;ratioP1;P1;durP2;ratioP2;P2;SDS_P1;SDS_P2;PMS_P1;PMS_P2;Temp;Humidity;BMP_temperature;BMP_pressure;BME280_temperature;BME280_humidity;BME280_pressure;Samples;Min_cycle;Max_cycle;Signal;HPM_P1;HPM_P2
2022/11/12 00:01:08;;;;;;;307.94;121.50;;;;;;;11.97;74.91;101030.47;2502989;27;20265;-77
2022/11/12 00:01:18;;;;;;;316.73;133.40;;;;;;;11.98;75.43;101029.56;353061;28;1159;-76
2022/11/12 00:01:28;;;;;;;317.58;133.50;;;;;;;11.98;75.08;101021.69;348965;28;1223;-76
2022/11/12 00:01:39;;;;;;;318.03;133.70;;;;;;;11.98;75.19;101021.69;347016;28;1638;-76
2022/11/12 00:01:49;;;;;;;318.98;134.13;;;;;;;11.98;75.05;101032.19;348986;28;1266;-75
2022/11/12 00:02:00;;;;;;;318.80;133.20;;;;;;;11.96;75.36;101013.88;348961;28;1366;-75
2022/11/12 00:02:10;;;;;;;319.50;133.80;;;;;;;11.98;75.47;101019.94;349160;28;937;-75
2022/11/12 00:02:20;;;;;;;318.23;132.77;;;;;;;11.99;75.34;101018.19;346170;28;1294;-75
2022/11/12 00:02:31;;;;;;;316.30;130.10;;;;;;;12.01;75.29;101023.38;348950;28;1347;-76
2022/11/12 00:02:41;;;;;;;315.23;127.35;;;;;;;12.03;75.55;101025.06;348957;28;1378;-76
2022/11/12 00:02:53;;;;;;;317.57;129.67;;;;;;;12.03;75.60;101021.59;348956;28;1213;-75
2022/11/12 00:03:03;;;;;;;320.13;134.10;;;;;;;12.02;75.70;101022.50;348884;28;1765;-76
2022/11/12 00:03:14;;;;;;;319.73;134.87;;;;;;;12.03;75.75;101022.47;351511;28;1441;-75
2022/11/12 00:03:24;;;;;;;319.40;132.57;;;;;;;12.04;75.59;101024.19;348905;28;1966;-75
2022/11/12 00:03:34;;;;;;;319.77;131.17;;;;;;;12.05;75.55;101022.41;349356;28;892;-75
2022/11/12 00:03:45;;;;;;;317.92;128.98;;;;;;;12.05;75.91;101023.28;349959;28;1394;-76
2022/11/12 00:03:56;;;;;;;317.87;129.13;;;;;;;12.04;75.70;101024.19;348935;28;1317;-76
2022/11/12 00:04:08;;;;;;;317.13;129.57;;;;;;;12.03;75.75;101024.22;348959;28;1236;-76
2022/11/12 00:04:18;;;;;;;317.65;131.27;;;;;;;12.01;75.88;101031.25;350352;28;871;-76
2022/11/12 00:04:29;;;;;;;318.15;131.43;;;;;;;11.99;75.92;101018.19;348959;28;884;-76
2022/11/12 00:04:39;;;;;;;318.53;132.20;;;;;;;11.99;75.68;101019.03;348476;28;1950;-76
2022/11/12 00:04:49;;;;;;;317.65;130.32;;;;;;;12.00;75.93;101022.53;348240;28;1392;-75
2022/11/12 00:05:00;;;;;;;319.97;130.90;;;;;;;12.00;75.62;101025.16;346038;28;1093;-75
2022/11/12 00:05:10;;;;;;;321.63;132.10;;;;;;;12.01;75.76;101016.38;346302;28;1346;-75
2022/11/12 00:05:21;;;;;;;322.30;134.70;;;;;;;12.03;75.92;101034.72;343597;28;1389;-75
2022/11/12 00:05:31;;;;;;;319.73;133.90;;;;;;;12.02;76.04;101020.72;343975;28;1303;-75
2022/11/12 00:05:43;;;;;;;317.08;130.98;;;;;;;12.04;75.85;101023.31;344166;28;3894;-75
2022/11/12 00:05:53;;;;;;;316.13;129.27;;;;;;;12.06;76.26;101021.53;347357;28;5065;-75
2022/11/12 00:06:04;;;;;;;316.97;130.27;;;;;;;12.04;76.15;101016.31;347540;28;1935;-75
2022/11/12 00:06:16;;;;;;;322.88;131.73;;;;;;;11.99;76.46;101028.69;347470;28;2182;-76
2022/11/12 00:06:26;;;;;;;321.95;129.73;;;;;;;11.97;76.74;101020.84;345799;28;3278;-74
2022/11/12 00:06:36;;;;;;;318.77;128.17;;;;;;;11.97;76.89;101017.34;346170;28;848;-75
2022/11/12 00:06:47;;;;;;;317.50;130.43;;;;;;;11.96;77.12;101024.34;344599;28;1474;-75
2022/11/12 00:06:57;;;;;;;317.90;129.80;;;;;;;11.96;77.17;101026.13;344728;28;1334;-75
2022/11/12 00:07:08;;;;;;;317.57;128.13;;;;;;;11.95;77.41;101027.03;346356;28;1234;-75
2022/11/12 00:07:18;;;;;;;316.92;126.13;;;;;;;11.95;77.78;101022.63;345035;28;957;-75
2022/11/12 00:07:28;;;;;;;317.53;127.93;;;;;;;11.95;77.70;101021.78;342449;28;1602;-75
2022/11/12 00:07:39;;;;;;;318.40;130.30;;;;;;;11.96;77.76;101023.50;344876;28;1300;-75
2022/11/12 00:07:49;;;;;;;317.47;129.67;;;;;;;11.96;77.72;101028.75;344715;28;1211;-75
2022/11/12 00:08:00;;;;;;;317.37;129.83;;;;;;;11.93;77.60;101029.69;340883;29;967;-73
2022/11/12 00:08:10;;;;;;;316.98;129.68;;;;;;;11.90;78.04;101027.13;340810;29;1878;-75
2022/11/12 00:08:20;;;;;;;317.13;131.03;;;;;;;11.87;78.57;101026.34;344710;28;1245;-74
2022/11/12 00:08:31;;;;;;;318.48;130.27;;;;;;;11.85;78.63;101022.88;340546;28;1627;-75
2022/11/12 00:08:41;;;;;;;318.37;129.17;;;;;;;11.84;79.00;101023.78;340084;29;944;-75
2022/11/12 00:08:52;;;;;;;317.67;129.48;;;;;;;11.83;79.23;101022.06;335679;29;1393;-74
2022/11/12 00:09:02;;;;;;;317.53;131.23;;;;;;;11.83;79.11;101024.69;338069;29;1457;-75
2022/11/12 00:09:12;;;;;;;317.98;131.85;;;;;;;11.83;79.21;101022.06;338980;28;1428;-74
2022/11/12 00:09:23;;;;;;;319.17;130.93;;;;;;;11.83;79.61;101016.81;343638;28;865;-74
2022/11/12 00:09:33;;;;;;;318.70;129.00;;;;;;;11.74;79.78;101017.84;340999;28;1392;-74
2022/11/12 00:09:44;;;;;;;319.67;131.57;;;;;;;11.70;79.96;101025.84;339669;29;1856;-74
2022/11/12 00:09:54;;;;;;;317.87;131.13;;;;;;;11.67;79.96;101021.53;337143;29;1366;-75
2022/11/12 00:10:05;;;;;;;317.77;132.10;;;;;;;11.63;80.12;101018.13;336626;29;1376;-74
2022/11/12 00:10:15;;;;;;;318.75;132.38;;;;;;;11.62;80.85;101019.03;336852;29;1188;-76
2022/11/12 00:10:26;;;;;;;320.07;134.67;;;;;;;11.65;81.07;101015.47;333219;29;1179;-76
2022/11/12 00:10:36;;;;;;;321.20;138.35;;;;;;;11.66;81.69;101014.56;335664;29;906;-75
2022/11/12 00:10:47;;;;;;;322.17;140.93;;;;;;;11.68;81.79;101007.53;336116;29;1581;-75
2022/11/12 00:10:57;;;;;;;323.73;142.30;;;;;;;11.70;81.01;101010.13;334268;29;1790;-75
2022/11/12 00:11:07;;;;;;;324.90;141.60;;;;;;;11.71;81.23;101017.06;333077;29;1304;-75
2022/11/12 00:11:18;;;;;;;323.13;138.55;;;;;;;11.75;81.31;101013.47;331478;29;1946;-75
2022/11/12 00:11:28;;;;;;;322.27;137.80;;;;;;;11.76;81.25;101015.19;331028;29;1827;-75
2022/11/12 00:11:38;;;;;;;321.30;136.27;;;;;;;11.76;81.35;101016.06;336998;29;1052;-75
2022/11/12 00:11:49;;;;;;;322.85;138.90;;;;;;;11.76;81.51;101015.19;334155;29;2046;-75
2022/11/12 00:11:59;;;;;;;322.97;139.67;;;;;;;11.73;81.65;101015.25;333247;29;1823;-75
2022/11/12 00:12:10;;;;;;;322.65;139.32;;;;;;;11.70;81.62;101015.38;334494;29;1003;-75
2022/11/12 00:12:20;;;;;;;321.93;136.43;;;;;;;11.63;81.20;101015.50;331489;29;1674;-75
2022/11/12 00:12:30;;;;;;;319.10;131.73;;;;;;;11.57;81.65;101020.00;330807;29;1016;-76
2022/11/12 00:12:41;;;;;;;319.00;133.70;;;;;;;11.55;82.03;101017.44;333388;29;1327;-76
2022/11/12 00:12:52;;;;;;;321.70;136.55;;;;;;;11.54;82.12;101015.69;328064;30;1069;-75
2022/11/12 00:13:02;;;;;;;324.10;139.80;;;;;;;11.54;81.92;101015.69;328042;29;1975;-75
2022/11/12 00:13:12;;;;;;;324.75;140.48;;;;;;;11.54;82.08;101015.69;325421;30;2231;-75
2022/11/12 00:13:23;;;;;;;323.87;140.80;;;;;;;11.56;82.15;101013.91;323216;30;1909;-75
2022/11/12 00:13:33;;;;;;;324.73;142.77;;;;;;;11.54;82.54;101015.69;321053;30;2449;-75
2022/11/12 00:13:44;;;;;;;325.07;143.40;;;;;;;11.56;81.98;101019.16;321946;30;2444;-76
2022/11/12 00:13:54;;;;;;;325.15;142.13;;;;;;;11.58;81.95;101012.13;328227;30;1009;-76
2022/11/12 00:14:05;;;;;;;325.13;141.10;;;;;;;11.55;81.16;101020.03;326454;29;2755;-76
2022/11/12 00:14:15;;;;;;;326.35;139.10;;;;;;;11.57;81.25;101014.78;327073;29;2549;-75
2022/11/12 00:14:25;;;;;;;327.73;142.50;;;;;;;11.57;81.43;101015.63;328184;30;1332;-75
2022/11/12 00:14:36;;;;;;;326.58;143.20;;;;;;;11.57;81.65;101014.78;329009;30;1763;-76
2022/11/12 00:14:46;;;;;;;325.87;143.20;;;;;;;11.57;81.77;101009.53;326677;30;1286;-75
2022/11/12 00:14:57;;;;;;;325.73;141.23;;;;;;;11.58;81.82;101016.50;320765;30;3808;-74
2022/11/12 00:15:07;;;;;;;325.77;140.82;;;;;;;11.58;81.62;101012.13;320964;30;3244;-74
2022/11/12 00:15:18;;;;;;;325.83;140.70;;;;;;;11.61;81.65;101011.19;321637;30;2437;-75
2022/11/12 00:15:28;;;;;;;328.37;143.37;;;;;;;11.60;81.53;101010.31;319775;30;3179;-75
2022/11/12 00:15:39;;;;;;;328.20;143.80;;;;;;;11.57;81.57;101014.78;319711;30;5950;-75
2022/11/12 00:15:49;;;;;;;325.97;145.27;;;;;;;11.57;81.57;101022.63;319641;30;3423;-75
2022/11/12 00:15:59;;;;;;;324.27;143.47;;;;;;;11.58;81.63;101019.13;321308;30;3207;-75
2022/11/12 00:16:10;;;;;;;323.67;142.05;;;;;;;11.56;81.84;101021.78;322095;30;1233;-75
2022/11/12 00:16:20;;;;;;;322.57;140.47;;;;;;;11.57;82.10;101018.25;320602;30;3345;-75
2022/11/12 00:16:30;;;;;;;321.73;138.18;;;;;;;11.55;81.78;101016.56;320217;30;3065;-76
2022/11/12 00:16:41;;;;;;;322.67;140.23;;;;;;;11.54;81.41;101015.69;318377;31;1552;-76
2022/11/12 00:16:51;;;;;;;322.73;140.35;;;;;;;11.56;81.48;101015.66;317200;31;2270;-75
2022/11/12 00:17:02;;;;;;;321.63;140.60;;;;;;;11.58;81.63;101014.75;314114;31;3774;-75
2022/11/12 00:17:12;;;;;;;321.93;139.57;;;;;;;11.58;81.50;101017.34;311411;31;3555;-75
2022/11/12 00:17:22;;;;;;;324.25;141.70;;;;;;;11.60;81.69;101015.56;315217;31;1371;-75
2022/11/12 00:17:33;;;;;;;330.13;143.63;;;;;;;11.59;81.89;101013.84;313040;31;3062;-75
2022/11/12 00:17:43;;;;;;;330.42;144.20;;;;;;;11.59;81.95;101019.09;310679;31;3953;-75
2022/11/12 00:17:54;;;;;;;327.80;142.97;;;;;;;11.59;81.99;101013.84;310189;31;860;-76
2022/11/12 00:18:04;;;;;;;323.55;140.93;;;;;;;11.59;82.26;101024.31;307528;32;4595;-74
2022/11/12 00:18:14;;;;;;;322.27;139.93;;;;;;;11.60;82.51;101014.69;307633;31;4701;-75
2022/11/12 00:18:25;;;;;;;321.57;139.40;;;;;;;11.61;82.52;101022.53;308254;31;1562;-75
2022/11/12 00:18:35;;;;;;;322.98;141.80;;;;;;;11.61;82.84;101014.66;306509;32;4115;-74
2022/11/12 00:18:47;;;;;;;322.87;141.17;;;;;;;11.62;82.95;101019.03;305718;31;4419;-76
2022/11/12 00:18:57;;;;;;;321.98;139.48;;;;;;;11.57;82.33;101023.50;308666;31;3214;-76
2022/11/12 00:19:07;;;;;;;321.27;137.47;;;;;;;11.54;81.95;101020.06;311846;31;1325;-76
2022/11/12 00:19:18;;;;;;;321.98;139.63;;;;;;;11.50;82.04;101023.66;307100;32;3423;-75
2022/11/12 00:19:28;;;;;;;322.43;141.30;;;;;;;11.45;82.40;101023.75;304877;32;3777;-75
2022/11/12 00:19:38;;;;;;;322.67;142.43;;;;;;;11.44;82.86;101021.19;306474;32;970;-75
2022/11/12 00:19:49;;;;;;;324.67;144.33;;;;;;;11.45;83.00;101021.13;304695;31;4840;-75
2022/11/12 00:20:00;;;;;;;325.45;143.77;;;;;;;11.47;83.78;101019.34;302607;32;6531;-75
2022/11/12 00:20:12;;;;;;;326.87;144.20;;;;;;;11.49;84.02;101021.94;303321;32;1099;-75
2022/11/12 00:20:22;;;;;;;325.13;143.02;;;;;;;11.45;83.77;101015.03;296089;33;1545;-75
2022/11/12 00:20:32;;;;;;;323.75;142.20;;;;;;;11.48;83.83;101018.44;292283;33;6156;-75
2022/11/12 00:20:43;;;;;;;324.10;142.00;;;;;;;11.51;83.58;101015.75;291764;33;5962;-75
2022/11/12 00:20:53;;;;;;;326.58;144.77;;;;;;;11.52;83.99;101016.63;295186;33;899;-75
2022/11/12 00:21:04;;;;;;;327.30;147.50;;;;;;;11.55;83.59;101016.56;295411;33;6357;-74
2022/11/12 00:21:14;;;;;;;326.90;147.93;;;;;;;11.57;83.67;101014.78;295367;33;4653;-74
2022/11/12 00:21:25;;;;;;;327.60;147.53;;;;;;;11.58;83.80;101022.59;296154;33;1126;-74
2022/11/12 00:21:35;;;;;;;327.02;145.82;;;;;;;11.61;83.75;101021.66;293045;33;4978;-75
2022/11/12 00:21:45;;;;;;;328.47;146.60;;;;;;;11.63;83.59;101025.13;289062;33;6422;-75
2022/11/12 00:21:56;;;;;;;325.90;143.80;;;;;;;11.64;83.93;101016.38;286558;34;1335;-75
2022/11/12 00:22:06;;;;;;;326.13;143.70;;;;;;;11.64;83.62;101011.97;282863;34;6887;-75
2022/11/12 00:22:17;;;;;;;323.87;141.47;;;;;;;11.65;83.73;101013.72;283413;34;8948;-75
2022/11/12 00:22:27;;;;;;;324.58;141.95;;;;;;;11.68;83.61;101019.78;286692;34;11763;-75
2022/11/12 00:22:37;;;;;;;324.63;142.03;;;;;;;11.69;83.65;101016.25;284598;34;1361;-75
2022/11/12 00:24:44;;;;;;;312.74;128.71;;;;;;;11.79;84.09;101020.41;2489260;27;20269;-75
2022/11/12 00:24:55;;;;;;;323.40;135.30;;;;;;;11.75;84.36;101018.72;354521;27;3560;-75
2022/11/12 00:25:06;;;;;;;323.77;133.70;;;;;;;11.73;84.30;101015.25;351388;28;1703;-74
2022/11/12 00:25:16;;;;;;;319.58;131.93;;;;;;;11.73;84.34;101016.13;347485;28;1410;-74
2022/11/12 00:25:27;;;;;;;320.50;133.57;;;;;;;11.74;84.40;101019.59;347601;28;1296;-75
2022/11/12 00:25:37;;;;;;;322.40;135.93;;;;;;;11.71;83.98;101014.44;349668;28;1634;-75
2022/11/12 00:25:57;;;;;;;322.55;136.85;;;;;;;11.70;83.54;101017.97;350526;28;1529;-75
2022/11/12 00:26:07;;;;;;;319.55;134.90;;;;;;;11.70;83.68;101015.38;350303;28;1503;-75
2022/11/12 00:26:17;;;;;;;319.33;134.60;;;;;;;11.70;83.76;101021.44;350331;28;1237;-75
2022/11/12 00:26:28;;;;;;;319.27;135.02;;;;;;;11.72;83.67;101024.03;348963;28;1724;-75
2022/11/12 00:26:38;;;;;;;320.03;135.07;;;;;;;11.72;83.55;101018.78;348877;28;838;-74
2022/11/12 00:26:49;;;;;;;320.23;134.70;;;;;;;11.73;83.53;101015.25;350281;28;2209;-74
2022/11/12 00:26:59;;;;;;;322.87;139.33;;;;;;;11.74;83.72;101017.00;349088;28;932;-74
2022/11/12 00:27:09;;;;;;;321.23;139.48;;;;;;;11.75;84.18;101019.56;348883;28;1281;-75
2022/11/12 00:27:20;;;;;;;320.83;140.43;;;;;;;11.78;84.29;101013.44;347712;28;926;-75
2022/11/12 00:27:31;;;;;;;319.93;139.00;;;;;;;11.79;84.73;101016.00;349051;28;883;-75
2022/11/12 00:27:41;;;;;;;320.10;135.65;;;;;;;11.80;84.80;101016.88;350208;28;1463;-75
2022/11/12 00:27:53;;;;;;;321.70;134.37;;;;;;;11.81;85.15;101018.59;347752;28;873;-75
2022/11/12 00:28:05;;;;;;;320.35;130.20;;;;;;;11.82;85.02;101020.31;348976;28;848;-75
2022/11/12 00:28:15;;;;;;;320.75;130.02;;;;;;;11.81;85.20;101013.34;349001;28;1038;-75
2022/11/12 00:28:25;;;;;;;321.97;130.60;;;;;;;11.80;85.11;101019.50;348831;28;1624;-75
2022/11/12 00:28:36;;;;;;;322.40;132.67;;;;;;;11.81;85.15;101021.22;344991;28;1528;-74
2022/11/12 00:28:46;;;;;;;320.77;134.85;;;;;;;11.80;85.37;101017.75;347875;28;943;-74
2022/11/12 00:28:57;;;;;;;320.60;136.60;;;;;;;11.81;85.41;101015.97;351361;28;1205;-76
2022/11/12 00:29:07;;;;;;;320.17;134.18;;;;;;;11.82;85.40;101012.47;349000;28;2040;-75
2022/11/12 00:29:17;;;;;;;319.93;132.87;;;;;;;11.81;85.50;101018.59;348439;28;2067;-75
2022/11/12 00:29:28;;;;;;;318.83;130.07;;;;;;;11.82;85.82;101020.31;347578;28;1153;-75
2022/11/12 00:29:38;;;;;;;320.17;132.63;;;;;;;11.83;85.75;101019.44;346279;28;932;-75
2022/11/12 00:29:49;;;;;;;320.40;131.48;;;;;;;11.81;85.91;101014.22;346338;28;925;-75
2022/11/12 00:29:59;;;;;;;324.70;135.30;;;;;;;11.83;86.47;101014.19;348912;28;1191;-75
2022/11/12 00:30:10;;;;;;;329.53;135.07;;;;;;;11.82;86.91;101017.72;347970;28;1664;-75
2022/11/12 00:30:20;;;;;;;329.80;138.30;;;;;;;11.82;87.11;101010.69;344713;28;1315;-75
2022/11/12 00:30:32;;;;;;;325.90;137.68;;;;;;;11.82;87.06;101021.19;344747;28;1306;-75
2022/11/12 00:30:43;;;;;;;320.27;138.15;;;;;;;11.79;86.91;101020.41;342998;28;1681;-76
2022/11/12 00:30:53;;;;;;;318.97;136.10;;;;;;;11.69;85.95;101013.63;343873;28;1300;-75
2022/11/12 00:31:08;;;;;;;318.08;133.57;;;;;;;11.65;85.55;101018.94;341413;28;1557;-75
2022/11/12 00:31:18;;;;;;;316.13;129.48;;;;;;;11.65;85.26;101018.94;343502;28;1440;-77
2022/11/12 00:31:29;;;;;;;316.47;128.40;;;;;;;11.66;85.60;101020.69;346221;28;1467;-75
2022/11/12 00:31:39;;;;;;;317.15;127.22;;;;;;;11.65;85.67;101018.94;344316;28;1375;-75
2022/11/12 00:31:50;;;;;;;318.13;129.60;;;;;;;11.64;85.57;101019.84;344964;28;1223;-75
2022/11/12 00:32:00;;;;;;;317.80;130.73;;;;;;;11.65;85.59;101018.94;342179;28;1229;-76
2022/11/12 00:32:11;;;;;;;317.10;131.57;;;;;;;11.68;85.76;101023.25;343588;28;897;-76
2022/11/12 00:32:21;;;;;;;316.38;129.55;;;;;;;11.68;86.14;101019.78;345415;28;1450;-75
2022/11/12 00:32:35;;;;;;;318.10;131.63;;;;;;;11.69;86.15;101018.88;343522;28;1296;-75
2022/11/12 00:32:45;;;;;;;319.10;133.38;;;;;;;11.69;85.89;101018.88;336976;29;1309;-75
2022/11/12 00:32:56;;;;;;;317.93;131.50;;;;;;;11.69;85.92;101014.50;339034;28;1573;-75
2022/11/12 00:33:06;;;;;;;318.23;132.25;;;;;;;11.70;85.93;101015.38;340665;28;1315;-75
2022/11/12 00:33:16;;;;;;;317.80;130.63;;;;;;;11.71;85.72;101022.31;339598;29;922;-75
2022/11/12 00:33:27;;;;;;;318.75;132.52;;;;;;;11.70;85.70;101013.56;336364;29;3857;-75
2022/11/12 00:33:41;;;;;;;319.43;134.90;;;;;;;11.73;85.90;101015.25;333153;29;4890;-75
2022/11/12 00:33:51;;;;;;;321.48;135.52;;;;;;;11.73;85.90;101020.50;333497;29;1311;-76
2022/11/12 00:34:02;;;;;;;322.95;132.93;;;;;;;11.68;85.57;101017.16;335649;29;2567;-75
2022/11/12 00:34:13;;;;;;;321.63;129.40;;;;;;;11.64;84.99;101016.38;335971;29;5979;-76
2022/11/12 00:34:23;;;;;;;319.35;130.40;;;;;;;11.63;85.21;101017.25;335343;29;1510;-75
2022/11/12 00:34:33;;;;;;;319.47;130.43;;;;;;;11.60;85.42;101020.81;334198;29;1450;-75
2022/11/12 00:34:44;;;;;;;319.30;131.00;;;;;;;11.60;85.44;101018.19;336952;29;1224;-74
2022/11/12 00:34:54;;;;;;;316.67;127.43;;;;;;;11.60;85.42;101018.19;333319;29;2203;-74
2022/11/12 00:35:05;;;;;;;317.45;128.27;;;;;;;11.62;85.93;101013.78;334590;29;1901;-74
2022/11/12 00:35:16;;;;;;;318.92;130.07;;;;;;;11.64;86.42;101016.38;338171;29;1495;-75
2022/11/12 00:35:26;;;;;;;319.63;131.43;;;;;;;11.66;87.29;101020.69;338959;29;1818;-75
2022/11/12 00:35:36;;;;;;;319.15;131.43;;;;;;;11.68;86.67;101022.41;338409;29;2140;-75
2022/11/12 00:35:47;;;;;;;320.80;134.27;;;;;;;11.65;86.55;101021.56;337449;29;1771;-75
2022/11/12 00:35:58;;;;;;;320.58;135.02;;;;;;;11.68;86.21;101020.63;338135;29;2044;-75
2022/11/12 00:36:09;;;;;;;321.77;139.02;;;;;;;11.65;86.07;101018.94;336087;29;1460;-75
2022/11/12 00:36:20;;;;;;;319.80;135.05;;;;;;;11.64;85.87;101024.22;333617;29;1287;-75
2022/11/12 00:36:30;;;;;;;320.52;135.63;;;;;;;11.65;85.98;101018.94;334380;29;875;-75
2022/11/12 00:36:41;;;;;;;319.43;133.50;;;;;;;11.68;86.03;101025.03;337249;29;1604;-75
2022/11/12 00:36:51;;;;;;;318.98;132.73;;;;;;;11.67;85.75;101016.28;335231;29;2224;-75
2022/11/12 00:37:04;;;;;;;317.93;131.60;;;;;;;11.67;85.59;101026.78;330720;29;928;-75
2022/11/12 00:37:15;;;;;;;319.17;132.98;;;;;;;11.68;85.52;101022.41;325711;30;1487;-75
2022/11/12 00:37:26;;;;;;;320.67;136.25;;;;;;;11.70;85.54;101020.59;331544;29;2147;-75
2022/11/12 00:37:36;;;;;;;321.10;137.33;;;;;;;11.71;85.63;101017.06;330019;29;3106;-74
2022/11/12 00:37:47;;;;;;;321.35;136.48;;;;;;;11.72;85.54;101021.41;329308;30;1358;-74
2022/11/12 00:37:57;;;;;;;320.13;133.57;;;;;;;11.72;85.72;101018.78;330075;29;2463;-75
2022/11/12 00:38:07;;;;;;;318.95;133.38;;;;;;;11.72;85.66;101021.41;327288;30;1547;-75
2022/11/12 00:38:18;;;;;;;320.73;137.07;;;;;;;11.72;86.08;101021.41;326793;30;961;-75
2022/11/12 00:38:29;;;;;;;322.60;140.83;;;;;;;11.72;86.27;101021.41;324292;30;1912;-75
2022/11/12 00:38:40;;;;;;;322.50;139.00;;;;;;;11.73;87.02;101023.13;322590;30;2937;-74
2022/11/12 00:38:50;;;;;;;322.73;137.37;;;;;;;11.73;87.15;101026.63;321217;30;2440;-74
2022/11/12 00:39:00;;;;;;;320.70;133.93;;;;;;;11.74;86.92;101019.59;324382;30;848;-74
2022/11/12 00:39:11;;;;;;;321.70;133.50;;;;;;;11.74;87.17;101022.22;319977;30;2847;-75
2022/11/12 00:39:21;;;;;;;320.27;134.40;;;;;;;11.76;87.13;101020.44;319440;30;3483;-75
2022/11/12 00:39:32;;;;;;;323.57;138.30;;;;;;;11.75;87.23;101019.56;323360;30;1231;-75
2022/11/12 00:39:42;;;;;;;321.52;137.98;;;;;;;11.76;87.53;101020.44;322609;30;2988;-75
2022/11/12 00:39:52;;;;;;;321.37;136.60;;;;;;;11.77;87.83;101024.81;320344;30;2972;-75
2022/11/12 00:40:03;;;;;;;320.50;136.60;;;;;;;11.76;87.83;101021.31;317538;30;1202;-75
2022/11/12 00:40:14;;;;;;;321.05;136.00;;;;;;;11.76;87.88;101020.44;316727;31;1325;-75
2022/11/12 00:40:25;;;;;;;320.33;134.40;;;;;;;11.77;88.27;101022.19;318531;30;1663;-75
2022/11/12 00:40:35;;;;;;;320.83;135.00;;;;;;;11.76;88.31;101015.19;317214;30;2380;-75
2022/11/12 00:40:45;;;;;;;320.50;136.13;;;;;;;11.76;88.14;101021.31;315170;31;1275;-75
2022/11/12 00:40:59;;;;;;;321.00;137.10;;;;;;;11.76;88.34;101020.44;314908;31;3069;-75
2022/11/12 00:41:09;;;;;;;319.40;134.23;;;;;;;11.78;88.43;101023.91;314350;31;3711;-75
2022/11/12 00:41:20;;;;;;;320.35;132.98;;;;;;;11.77;88.65;101017.81;315907;31;4052;-75
2022/11/12 00:41:30;;;;;;;320.00;132.57;;;;;;;11.78;89.07;101018.69;314130;31;1192;-75
2022/11/12 00:41:40;;;;;;;317.70;129.93;;;;;;;11.77;89.14;101020.44;308372;31;4555;-75
2022/11/12 00:41:51;;;;;;;320.03;133.20;;;;;;;11.76;89.22;101021.31;308666;31;4214;-75
2022/11/12 00:42:01;;;;;;;319.67;133.50;;;;;;;11.76;89.69;101015.19;315273;31;1196;-76
2022/11/12 00:42:12;;;;;;;320.63;136.02;;;;;;;11.75;89.76;101013.47;314059;31;3464;-75
2022/11/12 00:42:22;;;;;;;319.23;136.67;;;;;;;11.75;89.88;101016.09;311592;31;2959;-75
2022/11/12 00:42:32;;;;;;;318.92;135.32;;;;;;;11.74;90.48;101023.09;314021;31;1390;-75
2022/11/12 00:42:43;;;;;;;318.70;132.27;;;;;;;11.70;90.70;101015.38;308516;31;5363;-74
2022/11/12 00:42:53;;;;;;;319.52;130.43;;;;;;;11.70;90.70;101023.22;308505;31;6320;-74
2022/11/12 00:43:04;;;;;;;323.43;132.30;;;;;;;11.70;90.80;101015.38;308873;31;4471;-75
2022/11/12 00:43:14;;;;;;;323.33;132.67;;;;;;;11.70;90.65;101015.38;309536;31;2260;-75
2022/11/12 00:43:24;;;;;;;323.95;134.70;;;;;;;11.72;90.78;101013.53;307308;31;5289;-75
2022/11/12 00:43:35;;;;;;;322.67;135.43;;;;;;;11.71;90.69;101017.06;308539;31;6022;-75
2022/11/12 00:43:45;;;;;;;321.88;135.05;;;;;;;11.71;90.45;101017.06;310435;31;2033;-75
2022/11/12 00:43:56;;;;;;;319.83;134.07;;;;;;;11.70;90.45;101024.06;301778;32;6645;-74
2022/11/12 00:44:06;;;;;;;317.58;129.82;;;;;;;11.69;90.42;101017.13;297881;32;7072;-75
2022/11/12 00:44:16;;;;;;;318.03;130.87;;;;;;;11.71;89.95;101017.06;300907;32;1321;-74
2022/11/12 00:44:28;;;;;;;318.30;130.25;;;;;;;11.70;90.10;101015.38;301770;32;5330;-74
2022/11/12 00:44:38;;;;;;;319.85;131.35;;;;;;;11.69;89.87;101013.63;300025;32;4232;-75
2022/11/12 00:44:49;;;;;;;320.95;129.32;;;;;;;11.68;90.06;101018.03;300439;32;3678;-75
2022/11/12 00:44:59;;;;;;;321.10;130.00;;;;;;;11.68;89.67;101011.91;300131;32;1202;-75
2022/11/12 00:45:09;;;;;;;318.23;129.18;;;;;;;11.66;89.43;101014.56;297874;32;5236;-75
2022/11/12 00:45:20;;;;;;;318.40;130.30;;;;;;;11.67;89.29;101016.28;295851;32;6566;-75
2022/11/12 00:45:30;;;;;;;320.03;133.37;;;;;;;11.68;89.24;101019.78;296122;33;1011;-75
2022/11/12 00:45:42;;;;;;;320.15;134.27;;;;;;;11.67;89.64;101011.03;291270;33;8153;-75
2022/11/12 00:45:52;;;;;;;320.05;134.75;;;;;;;11.68;89.95;101011.91;290287;33;9084;-75
2022/11/12 00:46:03;;;;;;;319.87;134.40;;;;;;;11.68;90.03;101014.53;290122;34;1552;-75
2022/11/12 00:46:13;;;;;;;320.45;135.48;;;;;;;11.67;90.01;101011.03;282922;34;10131;-76
2022/11/12 00:47:55;;;;;;;309.97;125.14;;;;;;;11.50;87.39;101015.81;2477471;27;20493;-75
2022/11/12 00:48:06;;;;;;;313.67;123.97;;;;;;;11.51;87.45;101017.53;351801;28;929;-75
2022/11/12 00:48:16;;;;;;;314.67;126.65;;;;;;;11.52;87.28;101014.00;349087;28;851;-75
2022/11/12 00:48:27;;;;;;;317.53;130.53;;;;;;;11.53;87.75;101013.13;348799;28;1976;-75
2022/11/12 00:48:37;;;;;;;319.48;133.48;;;;;;;11.51;87.51;101015.75;347046;28;1241;-75
2022/11/12 00:48:47;;;;;;;320.07;134.40;;;;;;;11.52;88.01;101014.88;346274;28;876;-75
2022/11/12 00:48:58;;;;;;;318.52;131.68;;;;;;;11.52;87.85;101012.25;347603;28;1185;-76
2022/11/12 00:49:08;;;;;;;320.37;133.77;;;;;;;11.53;88.13;101013.97;344842;28;1997;-75
2022/11/12 00:49:18;;;;;;;322.10;137.33;;;;;;;11.56;88.23;101008.66;344689;28;1282;-75
2022/11/12 00:49:29;;;;;;;321.17;137.13;;;;;;;11.57;87.85;101010.38;345276;28;1334;-75
2022/11/12 00:49:39;;;;;;;321.10;137.00;;;;;;;11.58;88.25;101012.13;347659;28;1160;-75
2022/11/12 00:49:50;;;;;;;320.30;136.32;;;;;;;11.60;88.30;101015.56;347601;28;892;-75
2022/11/12 00:50:00;;;;;;;320.10;136.60;;;;;;;11.61;88.34;101008.56;344927;28;1014;-75
2022/11/12 00:50:11;;;;;;;318.70;135.82;;;;;;;11.60;88.41;101015.56;346316;28;932;-74
2022/11/12 00:50:21;;;;;;;320.30;135.87;;;;;;;11.62;88.42;101008.53;346138;28;1195;-74
2022/11/12 00:50:32;;;;;;;321.13;134.70;;;;;;;11.56;87.81;101013.91;347487;28;1017;-74
2022/11/12 00:50:42;;;;;;;322.20;133.47;;;;;;;11.52;86.92;101014.88;344841;28;1313;-74
2022/11/12 00:51:01;;;;;;;324.70;133.35;;;;;;;11.52;87.22;101011.38;347569;28;1554;-75
2022/11/12 00:51:11;;;;;;;324.48;136.13;;;;;;;11.49;87.29;101007.06;346310;28;908;-75
2022/11/12 00:51:22;;;;;;;322.87;139.27;;;;;;;11.51;87.54;101013.16;344920;28;809;-75
2022/11/12 00:51:33;;;;;;;324.08;139.52;;;;;;;11.52;87.43;101012.25;344816;28;1149;-75
2022/11/12 00:51:43;;;;;;;323.23;137.98;;;;;;;11.54;87.40;101005.22;344868;28;1210;-75
2022/11/12 00:51:54;;;;;;;319.50;133.80;;;;;;;11.54;87.33;101007.84;343131;28;5727;-74
2022/11/12 00:52:04;;;;;;;319.45;135.55;;;;;;;11.56;87.39;101008.66;341970;28;3747;-74
2022/11/12 00:52:14;;;;;;;325.03;140.07;;;;;;;11.58;87.22;101009.50;343646;28;1898;-74
2022/11/12 00:52:25;;;;;;;325.98;139.82;;;;;;;11.59;87.30;101007.72;344680;28;2612;-74
2022/11/12 00:52:35;;;;;;;325.13;138.20;;;;;;;11.59;87.42;101003.34;346539;28;3291;-74
2022/11/12 00:52:46;;;;;;;320.40;136.75;;;;;;;11.60;87.78;101005.06;343768;28;912;-75